sensor_id;sensor_type;location;lat;lon;timestamp;temperature;humidity
79026;DHT22;71097;44.760;37.726;2023-07-08T00:00:33;27.57;79.38
79026;DHT22;71097;44.760;37.726;2023-07-08T00:01:34;27.55;79.13
79026;DHT22;71097;44.760;37.726;2023-07-08T00:02:36;27.53;79.25
79026;DHT22;71097;44.760;37.726;2023-07-08T00:03:43;27.54;79.32
79026;DHT22;71097;44.760;37.726;2023-07-08T00:04:45;27.53;79.24
79026;DHT22;71097;44.760;37.726;2023-07-08T00:05:48;27.53;79.38
79026;DHT22;71097;44.760;37.726;2023-07-08T00:06:51;27.55;79.27
79026;DHT22;71097;44.760;37.726;2023-07-08T00:07:53;27.55;79.17
79026;DHT22;71097;44.760;37.726;2023-07-08T00:08:54;27.58;78.95
79026;DHT22;71097;44.760;37.726;2023-07-08T00:09:56;27.60;79.08
79026;DHT22;71097;44.760;37.726;2023-07-08T00:10:58;27.58;79.36
79026;DHT22;71097;44.760;37.726;2023-07-08T00:12:04;27.55;79.59
79026;DHT22;71097;44.760;37.726;2023-07-08T00:13:05;27.54;79.64
79026;DHT22;71097;44.760;37.726;2023-07-08T00:14:08;27.53;79.68
79026;DHT22;71097;44.760;37.726;2023-07-08T00:15:11;27.54;79.78
79026;DHT22;71097;44.760;37.726;2023-07-08T00:16:15;27.57;79.91
79026;DHT22;71097;44.760;37.726;2023-07-08T00:17:16;27.58;79.85
79026;DHT22;71097;44.760;37.726;2023-07-08T00:18:19;27.56;80.01
79026;DHT22;71097;44.760;37.726;2023-07-08T00:19:21;27.56;79.98
79026;DHT22;71097;44.760;37.726;2023-07-08T00:20:35;27.56;79.95
79026;DHT22;71097;44.760;37.726;2023-07-08T00:21:38;27.54;79.92
79026;DHT22;71097;44.760;37.726;2023-07-08T00:22:40;27.54;79.79
79026;DHT22;71097;44.760;37.726;2023-07-08T00:23:46;27.53;79.85
79026;DHT22;71097;44.760;37.726;2023-07-08T00:24:51;27.53;79.83
79026;DHT22;71097;44.760;37.726;2023-07-08T00:25:52;27.58;79.71
79026;DHT22;71097;44.760;37.726;2023-07-08T00:26:54;27.60;79.54
79026;DHT22;71097;44.760;37.726;2023-07-08T00:27:55;27.61;79.48
79026;DHT22;71097;44.760;37.726;2023-07-08T00:28:57;27.65;79.33
79026;DHT22;71097;44.760;37.726;2023-07-08T00:29:58;27.61;79.39
79026;DHT22;71097;44.760;37.726;2023-07-08T00:31:09;27.61;79.55
79026;DHT22;71097;44.760;37.726;2023-07-08T00:32:13;27.64;79.49
79026;DHT22;71097;44.760;37.726;2023-07-08T00:33:15;27.69;79.32
79026;DHT22;71097;44.760;37.726;2023-07-08T00:34:17;27.68;79.51
79026;DHT22;71097;44.760;37.726;2023-07-08T00:35:28;27.60;79.66
79026;DHT22;71097;44.760;37.726;2023-07-08T00:36:31;27.65;79.62
79026;DHT22;71097;44.760;37.726;2023-07-08T00:37:33;27.64;79.60
79026;DHT22;71097;44.760;37.726;2023-07-08T00:38:35;27.63;79.62
79026;DHT22;71097;44.760;37.726;2023-07-08T00:39:37;27.63;79.50
79026;DHT22;71097;44.760;37.726;2023-07-08T00:40:51;27.63;79.49
79026;DHT22;71097;44.760;37.726;2023-07-08T00:41:53;27.61;79.59
79026;DHT22;71097;44.760;37.726;2023-07-08T00:42:56;27.63;79.75
79026;DHT22;71097;44.760;37.726;2023-07-08T00:43:59;27.64;79.85
79026;DHT22;71097;44.760;37.726;2023-07-08T00:45:01;27.66;79.52
79026;DHT22;71097;44.760;37.726;2023-07-08T00:47:33;27.63;79.14
79026;DHT22;71097;44.760;37.726;2023-07-08T00:48:34;27.64;79.21
79026;DHT22;71097;44.760;37.726;2023-07-08T00:49:43;27.65;79.30
79026;DHT22;71097;44.760;37.726;2023-07-08T00:50:46;27.64;79.26
79026;DHT22;71097;44.760;37.726;2023-07-08T00:51:48;27.63;79.42
79026;DHT22;71097;44.760;37.726;2023-07-08T00:53:24;27.61;79.52
79026;DHT22;71097;44.760;37.726;2023-07-08T00:54:26;27.61;79.61
79026;DHT22;71097;44.760;37.726;2023-07-08T00:55:28;27.63;79.49
79026;DHT22;71097;44.760;37.726;2023-07-08T00:56:35;27.66;79.46
79026;DHT22;71097;44.760;37.726;2023-07-08T00:57:40;27.69;79.21
79026;DHT22;71097;44.760;37.726;2023-07-08T00:58:49;27.68;79.16
79026;DHT22;71097;44.760;37.726;2023-07-08T00:59:57;27.75;79.19
79026;DHT22;71097;44.760;37.726;2023-07-08T01:01:02;27.74;78.94
79026;DHT22;71097;44.760;37.726;2023-07-08T01:02:07;27.75;79.09
79026;DHT22;71097;44.760;37.726;2023-07-08T01:03:11;27.76;79.14
79026;DHT22;71097;44.760;37.726;2023-07-08T01:04:25;27.74;79.19
79026;DHT22;71097;44.760;37.726;2023-07-08T01:05:30;27.74;79.29
79026;DHT22;71097;44.760;37.726;2023-07-08T01:06:37;27.75;79.14
79026;DHT22;71097;44.760;37.726;2023-07-08T01:07:43;27.76;79.19
79026;DHT22;71097;44.760;37.726;2023-07-08T01:08:46;27.78;79.12
79026;DHT22;71097;44.760;37.726;2023-07-08T01:09:58;27.73;79.37
79026;DHT22;71097;44.760;37.726;2023-07-08T01:11:03;27.72;79.36
79026;DHT22;71097;44.760;37.726;2023-07-08T01:12:09;27.68;79.69
79026;DHT22;71097;44.760;37.726;2023-07-08T01:13:15;27.67;79.77
79026;DHT22;71097;44.760;37.726;2023-07-08T01:14:19;27.69;79.66
79026;DHT22;71097;44.760;37.726;2023-07-08T01:15:23;27.70;79.83
79026;DHT22;71097;44.760;37.726;2023-07-08T01:16:27;27.69;79.88
79026;DHT22;71097;44.760;37.726;2023-07-08T01:17:29;27.71;79.98
79026;DHT22;71097;44.760;37.726;2023-07-08T01:18:34;27.67;79.96
79026;DHT22;71097;44.760;37.726;2023-07-08T01:19:37;27.68;79.74
79026;DHT22;71097;44.760;37.726;2023-07-08T01:20:39;27.70;79.73
79026;DHT22;71097;44.760;37.726;2023-07-08T01:21:48;27.71;79.46
79026;DHT22;71097;44.760;37.726;2023-07-08T01:23:02;27.73;79.34
79026;DHT22;71097;44.760;37.726;2023-07-08T01:24:09;27.71;79.49
79026;DHT22;71097;44.760;37.726;2023-07-08T01:25:12;27.65;79.56
79026;DHT22;71097;44.760;37.726;2023-07-08T01:26:14;27.67;79.38
79026;DHT22;71097;44.760;37.726;2023-07-08T01:27:18;27.73;79.27
79026;DHT22;71097;44.760;37.726;2023-07-08T01:28:20;27.66;79.08
79026;DHT22;71097;44.760;37.726;2023-07-08T01:29:23;27.61;79.30
79026;DHT22;71097;44.760;37.726;2023-07-08T01:30:26;27.63;79.44
79026;DHT22;71097;44.760;37.726;2023-07-08T01:31:29;27.65;78.89
79026;DHT22;71097;44.760;37.726;2023-07-08T01:32:31;27.66;79.32
79026;DHT22;71097;44.760;37.726;2023-07-08T01:33:34;27.66;79.10
79026;DHT22;71097;44.760;37.726;2023-07-08T01:34:36;27.70;78.93
79026;DHT22;71097;44.760;37.726;2023-07-08T01:35:38;27.72;78.77
79026;DHT22;71097;44.760;37.726;2023-07-08T01:36:44;27.73;78.63
79026;DHT22;71097;44.760;37.726;2023-07-08T01:38:13;27.76;78.30
79026;DHT22;71097;44.760;37.726;2023-07-08T01:39:19;27.78;78.69
79026;DHT22;71097;44.760;37.726;2023-07-08T01:40:26;27.79;78.53
79026;DHT22;71097;44.760;37.726;2023-07-08T01:41:28;27.81;78.32
79026;DHT22;71097;44.760;37.726;2023-07-08T01:42:29;27.80;78.40
79026;DHT22;71097;44.760;37.726;2023-07-08T01:43:31;27.88;78.30
79026;DHT22;71097;44.760;37.726;2023-07-08T01:44:35;27.88;78.34
79026;DHT22;71097;44.760;37.726;2023-07-08T01:45:40;27.87;78.14
79026;DHT22;71097;44.760;37.726;2023-07-08T01:46:42;27.82;78.47
79026;DHT22;71097;44.760;37.726;2023-07-08T01:47:48;27.82;78.25
79026;DHT22;71097;44.760;37.726;2023-07-08T01:48:57;27.81;78.42
79026;DHT22;71097;44.760;37.726;2023-07-08T01:49:59;27.79;78.37
79026;DHT22;71097;44.760;37.726;2023-07-08T01:51:04;27.79;78.92
79026;DHT22;71097;44.760;37.726;2023-07-08T01:52:07;27.75;79.14
79026;DHT22;71097;44.760;37.726;2023-07-08T01:53:20;27.75;78.96
79026;DHT22;71097;44.760;37.726;2023-07-08T01:54:25;27.73;79.21
79026;DHT22;71097;44.760;37.726;2023-07-08T01:55:27;27.71;79.37
79026;DHT22;71097;44.760;37.726;2023-07-08T01:56:32;27.73;79.34
79026;DHT22;71097;44.760;37.726;2023-07-08T01:57:34;27.73;79.16
79026;DHT22;71097;44.760;37.726;2023-07-08T01:58:36;27.74;79.07
79026;DHT22;71097;44.760;37.726;2023-07-08T01:59:38;27.71;79.11
79026;DHT22;71097;44.760;37.726;2023-07-08T02:00:40;27.71;79.23
79026;DHT22;71097;44.760;37.726;2023-07-08T02:01:41;27.71;79.40
79026;DHT22;71097;44.760;37.726;2023-07-08T02:02:43;27.69;79.42
79026;DHT22;71097;44.760;37.726;2023-07-08T02:03:44;27.68;79.46
79026;DHT22;71097;44.760;37.726;2023-07-08T02:04:47;27.69;79.37
79026;DHT22;71097;44.760;37.726;2023-07-08T02:05:49;27.68;79.24
79026;DHT22;71097;44.760;37.726;2023-07-08T02:06:54;27.73;79.29
79026;DHT22;71097;44.760;37.726;2023-07-08T02:07:56;27.75;79.11
79026;DHT22;71097;44.760;37.726;2023-07-08T02:08:58;27.73;79.23
79026;DHT22;71097;44.760;37.726;2023-07-08T02:10:00;27.74;79.13
79026;DHT22;71097;44.760;37.726;2023-07-08T02:11:02;27.76;79.14
79026;DHT22;71097;44.760;37.726;2023-07-08T02:12:05;27.74;79.17
79026;DHT22;71097;44.760;37.726;2023-07-08T02:13:06;27.72;79.34
79026;DHT22;71097;44.760;37.726;2023-07-08T02:14:08;27.70;79.39
79026;DHT22;71097;44.760;37.726;2023-07-08T02:15:10;27.66;79.45
79026;DHT22;71097;44.760;37.726;2023-07-08T02:16:11;27.66;79.64
79026;DHT22;71097;44.760;37.726;2023-07-08T02:17:13;27.65;79.57
79026;DHT22;71097;44.760;37.726;2023-07-08T02:18:16;27.65;79.64
79026;DHT22;71097;44.760;37.726;2023-07-08T02:19:22;27.61;79.32
79026;DHT22;71097;44.760;37.726;2023-07-08T02:20:24;27.59;79.50
79026;DHT22;71097;44.760;37.726;2023-07-08T02:21:26;27.60;79.63
79026;DHT22;71097;44.760;37.726;2023-07-08T02:22:32;27.60;79.53
79026;DHT22;71097;44.760;37.726;2023-07-08T02:23:33;27.61;79.59
79026;DHT22;71097;44.760;37.726;2023-07-08T02:24:34;27.63;79.66
79026;DHT22;71097;44.760;37.726;2023-07-08T02:25:36;27.61;79.73
79026;DHT22;71097;44.760;37.726;2023-07-08T02:26:38;27.61;79.75
79026;DHT22;71097;44.760;37.726;2023-07-08T02:27:39;27.61;79.70
79026;DHT22;71097;44.760;37.726;2023-07-08T02:28:41;27.61;79.75
79026;DHT22;71097;44.760;37.726;2023-07-08T02:29:43;27.63;79.69
79026;DHT22;71097;44.760;37.726;2023-07-08T02:30:44;27.60;79.72
79026;DHT22;71097;44.760;37.726;2023-07-08T02:31:47;27.60;79.75
79026;DHT22;71097;44.760;37.726;2023-07-08T02:32:49;27.61;79.70
79026;DHT22;71097;44.760;37.726;2023-07-08T02:33:58;27.69;79.47
79026;DHT22;71097;44.760;37.726;2023-07-08T02:35:00;27.71;79.51
79026;DHT22;71097;44.760;37.726;2023-07-08T02:36:01;27.74;79.33
79026;DHT22;71097;44.760;37.726;2023-07-08T02:37:06;27.73;79.22
79026;DHT22;71097;44.760;37.726;2023-07-08T02:38:08;27.79;79.24
79026;DHT22;71097;44.760;37.726;2023-07-08T02:39:10;27.81;79.08
79026;DHT22;71097;44.760;37.726;2023-07-08T02:40:12;27.81;79.09
79026;DHT22;71097;44.760;37.726;2023-07-08T02:41:15;27.79;78.74
79026;DHT22;71097;44.760;37.726;2023-07-08T02:42:17;27.76;78.97
79026;DHT22;71097;44.760;37.726;2023-07-08T02:43:18;27.76;79.08
79026;DHT22;71097;44.760;37.726;2023-07-08T02:44:20;27.76;79.15
79026;DHT22;71097;44.760;37.726;2023-07-08T02:45:22;27.81;78.92
79026;DHT22;71097;44.760;37.726;2023-07-08T02:46:23;27.82;79.03
79026;DHT22;71097;44.760;37.726;2023-07-08T02:47:25;27.85;78.99
79026;DHT22;71097;44.760;37.726;2023-07-08T02:48:26;27.83;78.87
79026;DHT22;71097;44.760;37.726;2023-07-08T02:49:29;27.83;79.08
79026;DHT22;71097;44.760;37.726;2023-07-08T02:50:31;27.85;78.45
79026;DHT22;71097;44.760;37.726;2023-07-08T02:51:33;27.94;78.40
79026;DHT22;71097;44.760;37.726;2023-07-08T02:52:34;27.91;78.05
79026;DHT22;71097;44.760;37.726;2023-07-08T02:53:36;27.88;78.18
79026;DHT22;71097;44.760;37.726;2023-07-08T02:54:38;27.88;77.95
79026;DHT22;71097;44.760;37.726;2023-07-08T02:55:41;27.87;77.82
79026;DHT22;71097;44.760;37.726;2023-07-08T02:56:44;27.85;77.65
79026;DHT22;71097;44.760;37.726;2023-07-08T02:57:45;27.86;77.24
79026;DHT22;71097;44.760;37.726;2023-07-08T02:58:47;27.86;77.54
79026;DHT22;71097;44.760;37.726;2023-07-08T02:59:49;27.88;77.45
79026;DHT22;71097;44.760;37.726;2023-07-08T03:00:54;27.91;77.31
79026;DHT22;71097;44.760;37.726;2023-07-08T03:01:56;27.93;77.34
79026;DHT22;71097;44.760;37.726;2023-07-08T03:02:57;27.96;77.10
79026;DHT22;71097;44.760;37.726;2023-07-08T03:04:01;27.97;77.02
79026;DHT22;71097;44.760;37.726;2023-07-08T03:05:02;28.00;77.00
79026;DHT22;71097;44.760;37.726;2023-07-08T03:06:06;28.02;76.19
79026;DHT22;71097;44.760;37.726;2023-07-08T03:07:08;28.01;76.26
79026;DHT22;71097;44.760;37.726;2023-07-08T03:08:13;27.98;76.65
79026;DHT22;71097;44.760;37.726;2023-07-08T03:09:14;28.00;76.80
79026;DHT22;71097;44.760;37.726;2023-07-08T03:10:16;27.97;76.71
79026;DHT22;71097;44.760;37.726;2023-07-08T03:11:18;27.98;76.89
79026;DHT22;71097;44.760;37.726;2023-07-08T03:12:19;28.03;76.64
79026;DHT22;71097;44.760;37.726;2023-07-08T03:13:21;28.06;76.65
79026;DHT22;71097;44.760;37.726;2023-07-08T03:14:23;28.06;76.79
79026;DHT22;71097;44.760;37.726;2023-07-08T03:15:25;28.08;76.73
79026;DHT22;71097;44.760;37.726;2023-07-08T03:16:26;28.10;76.92
79026;DHT22;71097;44.760;37.726;2023-07-08T03:17:28;28.09;76.67
79026;DHT22;71097;44.760;37.726;2023-07-08T03:18:30;28.06;77.04
79026;DHT22;71097;44.760;37.726;2023-07-08T03:19:31;28.03;76.85
79026;DHT22;71097;44.760;37.726;2023-07-08T03:20:34;28.03;76.97
79026;DHT22;71097;44.760;37.726;2023-07-08T03:21:37;28.04;76.86
79026;DHT22;71097;44.760;37.726;2023-07-08T03:22:39;28.08;76.95
79026;DHT22;71097;44.760;37.726;2023-07-08T03:23:41;28.10;77.02
79026;DHT22;71097;44.760;37.726;2023-07-08T03:24:43;28.16;76.91
79026;DHT22;71097;44.760;37.726;2023-07-08T03:25:53;28.19;76.88
79026;DHT22;71097;44.760;37.726;2023-07-08T03:26:56;28.29;76.61
79026;DHT22;71097;44.760;37.726;2023-07-08T03:27:59;28.33;76.78
79026;DHT22;71097;44.760;37.726;2023-07-08T03:29:15;28.31;76.71
79026;DHT22;71097;44.760;37.726;2023-07-08T03:30:21;28.40;76.66
79026;DHT22;71097;44.760;37.726;2023-07-08T03:31:28;28.37;76.49
79026;DHT22;71097;44.760;37.726;2023-07-08T03:32:29;28.33;76.68
79026;DHT22;71097;44.760;37.726;2023-07-08T03:33:31;28.32;76.87
79026;DHT22;71097;44.760;37.726;2023-07-08T03:34:34;28.37;77.03
79026;DHT22;71097;44.760;37.726;2023-07-08T03:35:36;28.39;76.72
79026;DHT22;71097;44.760;37.726;2023-07-08T03:36:47;28.32;76.45
79026;DHT22;71097;44.760;37.726;2023-07-08T03:37:53;28.31;76.37
79026;DHT22;71097;44.760;37.726;2023-07-08T03:38:56;28.31;75.69
79026;DHT22;71097;44.760;37.726;2023-07-08T03:39:58;28.33;75.37
79026;DHT22;71097;44.760;37.726;2023-07-08T03:41:05;28.28;75.69
79026;DHT22;71097;44.760;37.726;2023-07-08T03:42:06;28.33;76.07
79026;DHT22;71097;44.760;37.726;2023-07-08T03:43:08;28.34;76.08
79026;DHT22;71097;44.760;37.726;2023-07-08T03:44:11;28.33;76.28
79026;DHT22;71097;44.760;37.726;2023-07-08T03:45:15;28.37;76.07
79026;DHT22;71097;44.760;37.726;2023-07-08T03:46:18;28.38;75.43
79026;DHT22;71097;44.760;37.726;2023-07-08T03:47:23;28.40;75.70
79026;DHT22;71097;44.760;37.726;2023-07-08T03:48:27;28.35;75.88
79026;DHT22;71097;44.760;37.726;2023-07-08T03:49:29;28.38;75.53
79026;DHT22;71097;44.760;37.726;2023-07-08T03:50:34;28.35;75.63
79026;DHT22;71097;44.760;37.726;2023-07-08T03:51:38;28.35;75.49
79026;DHT22;71097;44.760;37.726;2023-07-08T03:52:42;28.32;75.70
79026;DHT22;71097;44.760;37.726;2023-07-08T03:53:44;28.38;75.90
79026;DHT22;71097;44.760;37.726;2023-07-08T03:54:48;28.35;75.90
79026;DHT22;71097;44.760;37.726;2023-07-08T03:55:55;28.31;76.07
79026;DHT22;71097;44.760;37.726;2023-07-08T03:56:57;28.25;76.33
79026;DHT22;71097;44.760;37.726;2023-07-08T03:58:07;28.25;76.27
79026;DHT22;71097;44.760;37.726;2023-07-08T03:59:10;28.23;76.44
79026;DHT22;71097;44.760;37.726;2023-07-08T04:00:13;28.24;76.38
79026;DHT22;71097;44.760;37.726;2023-07-08T04:01:20;28.26;76.47
79026;DHT22;71097;44.760;37.726;2023-07-08T04:02:24;28.27;75.34
79026;DHT22;71097;44.760;37.726;2023-07-08T04:03:26;28.21;75.81
79026;DHT22;71097;44.760;37.726;2023-07-08T04:04:27;28.26;75.98
79026;DHT22;71097;44.760;37.726;2023-07-08T04:05:29;28.18;76.20
79026;DHT22;71097;44.760;37.726;2023-07-08T04:06:30;28.15;76.41
79026;DHT22;71097;44.760;37.726;2023-07-08T04:07:34;28.20;76.37
79026;DHT22;71097;44.760;37.726;2023-07-08T04:08:42;28.20;76.59
79026;DHT22;71097;44.760;37.726;2023-07-08T04:09:46;28.18;76.63
79026;DHT22;71097;44.760;37.726;2023-07-08T04:10:54;28.18;76.48
79026;DHT22;71097;44.760;37.726;2023-07-08T04:12:17;28.17;76.77
79026;DHT22;71097;44.760;37.726;2023-07-08T04:13:19;28.16;76.66
79026;DHT22;71097;44.760;37.726;2023-07-08T04:14:21;28.26;76.54
79026;DHT22;71097;44.760;37.726;2023-07-08T04:15:22;28.20;76.53
79026;DHT22;71097;44.760;37.726;2023-07-08T04:16:29;28.20;76.55
79026;DHT22;71097;44.760;37.726;2023-07-08T04:17:31;28.16;76.70
79026;DHT22;71097;44.760;37.726;2023-07-08T04:18:32;28.16;76.79
79026;DHT22;71097;44.760;37.726;2023-07-08T04:19:34;28.17;76.54
79026;DHT22;71097;44.760;37.726;2023-07-08T04:20:36;28.19;76.94
79026;DHT22;71097;44.760;37.726;2023-07-08T04:21:38;28.25;76.70
79026;DHT22;71097;44.760;37.726;2023-07-08T04:22:46;28.23;75.83
79026;DHT22;71097;44.760;37.726;2023-07-08T04:23:48;28.24;75.60
79026;DHT22;71097;44.760;37.726;2023-07-08T04:24:50;28.26;76.06
79026;DHT22;71097;44.760;37.726;2023-07-08T04:25:54;28.27;76.44
79026;DHT22;71097;44.760;37.726;2023-07-08T04:26:59;28.31;76.47
79026;DHT22;71097;44.760;37.726;2023-07-08T04:28:00;28.40;76.37
79026;DHT22;71097;44.760;37.726;2023-07-08T04:29:02;28.45;76.16
79026;DHT22;71097;44.760;37.726;2023-07-08T04:30:07;28.53;75.76
79026;DHT22;71097;44.760;37.726;2023-07-08T04:31:11;28.54;75.63
79026;DHT22;71097;44.760;37.726;2023-07-08T04:32:12;28.60;75.63
79026;DHT22;71097;44.760;37.726;2023-07-08T04:33:15;28.69;75.32
79026;DHT22;71097;44.760;37.726;2023-07-08T04:34:16;28.70;74.61
79026;DHT22;71097;44.760;37.726;2023-07-08T04:35:18;28.70;74.35
79026;DHT22;71097;44.760;37.726;2023-07-08T04:36:20;28.59;74.94
79026;DHT22;71097;44.760;37.726;2023-07-08T04:37:22;28.61;75.35
79026;DHT22;71097;44.760;37.726;2023-07-08T04:38:25;28.60;75.01
79026;DHT22;71097;44.760;37.726;2023-07-08T04:39:27;28.58;74.57
79026;DHT22;71097;44.760;37.726;2023-07-08T04:40:29;28.59;74.38
79026;DHT22;71097;44.760;37.726;2023-07-08T04:41:35;28.59;74.09
79026;DHT22;71097;44.760;37.726;2023-07-08T04:42:41;28.54;74.25
79026;DHT22;71097;44.760;37.726;2023-07-08T04:43:43;28.61;74.35
79026;DHT22;71097;44.760;37.726;2023-07-08T04:44:45;28.60;74.27
79026;DHT22;71097;44.760;37.726;2023-07-08T04:45:51;28.56;74.57
79026;DHT22;71097;44.760;37.726;2023-07-08T04:46:57;28.52;74.97
79026;DHT22;71097;44.760;37.726;2023-07-08T04:47:59;28.42;73.05
79026;DHT22;71097;44.760;37.726;2023-07-08T04:49:12;28.23;71.11
79026;DHT22;71097;44.760;37.726;2023-07-08T04:50:14;28.16;71.08
79026;DHT22;71097;44.760;37.726;2023-07-08T04:51:29;28.05;69.29
79026;DHT22;71097;44.760;37.726;2023-07-08T04:52:33;28.09;69.96
79026;DHT22;71097;44.760;37.726;2023-07-08T04:53:39;28.08;67.32
79026;DHT22;71097;44.760;37.726;2023-07-08T04:54:41;28.05;68.22
79026;DHT22;71097;44.760;37.726;2023-07-08T04:55:47;28.12;66.98
79026;DHT22;71097;44.760;37.726;2023-07-08T04:56:52;28.16;66.49
79026;DHT22;71097;44.760;37.726;2023-07-08T04:57:54;28.19;65.55
79026;DHT22;71097;44.760;37.726;2023-07-08T04:58:55;28.26;66.17
79026;DHT22;71097;44.760;37.726;2023-07-08T04:59:59;28.28;66.24
79026;DHT22;71097;44.760;37.726;2023-07-08T05:01:07;28.27;66.22
79026;DHT22;71097;44.760;37.726;2023-07-08T05:02:08;28.24;66.23
79026;DHT22;71097;44.760;37.726;2023-07-08T05:03:12;28.20;66.33
79026;DHT22;71097;44.760;37.726;2023-07-08T05:04:18;28.29;66.65
79026;DHT22;71097;44.760;37.726;2023-07-08T05:05:20;28.25;66.89
79026;DHT22;71097;44.760;37.726;2023-07-08T05:06:22;28.32;66.94
79026;DHT22;71097;44.760;37.726;2023-07-08T05:07:24;28.29;66.02
79026;DHT22;71097;44.760;37.726;2023-07-08T05:08:26;28.31;66.59
79026;DHT22;71097;44.760;37.726;2023-07-08T05:09:27;28.39;65.85
79026;DHT22;71097;44.760;37.726;2023-07-08T05:10:32;28.43;66.30
79026;DHT22;71097;44.760;37.726;2023-07-08T05:11:38;28.50;66.18
79026;DHT22;71097;44.760;37.726;2023-07-08T05:12:43;28.63;66.50
79026;DHT22;71097;44.760;37.726;2023-07-08T05:13:45;28.65;65.82
79026;DHT22;71097;44.760;37.726;2023-07-08T05:14:49;28.68;65.92
79026;DHT22;71097;44.760;37.726;2023-07-08T05:15:50;28.68;66.22
79026;DHT22;71097;44.760;37.726;2023-07-08T05:16:56;28.70;66.33
79026;DHT22;71097;44.760;37.726;2023-07-08T05:18:01;28.78;65.98
79026;DHT22;71097;44.760;37.726;2023-07-08T05:19:03;28.87;65.44
79026;DHT22;71097;44.760;37.726;2023-07-08T05:20:06;28.91;66.04
79026;DHT22;71097;44.760;37.726;2023-07-08T05:21:09;29.02;66.05
79026;DHT22;71097;44.760;37.726;2023-07-08T05:22:12;29.17;65.80
79026;DHT22;71097;44.760;37.726;2023-07-08T05:23:22;29.33;65.66
79026;DHT22;71097;44.760;37.726;2023-07-08T05:25:07;29.49;64.54
79026;DHT22;71097;44.760;37.726;2023-07-08T05:26:57;29.70;63.76
79026;DHT22;71097;44.760;37.726;2023-07-08T05:28:46;29.67;63.44
79026;DHT22;71097;44.760;37.726;2023-07-08T05:31:00;29.34;64.54
79026;DHT22;71097;44.760;37.726;2023-07-08T05:34:47;29.00;66.32
79026;DHT22;71097;44.760;37.726;2023-07-08T05:35:49;29.05;66.63
79026;DHT22;71097;44.760;37.726;2023-07-08T05:36:50;29.04;66.96
79026;DHT22;71097;44.760;37.726;2023-07-08T05:37:52;28.99;66.84
79026;DHT22;71097;44.760;37.726;2023-07-08T05:38:53;29.02;67.14
79026;DHT22;71097;44.760;37.726;2023-07-08T05:39:55;29.06;67.46
79026;DHT22;71097;44.760;37.726;2023-07-08T05:40:58;29.06;67.94
79026;DHT22;71097;44.760;37.726;2023-07-08T05:42:00;29.07;67.10
79026;DHT22;71097;44.760;37.726;2023-07-08T05:43:02;29.11;67.20
79026;DHT22;71097;44.760;37.726;2023-07-08T05:44:03;29.06;67.40
79026;DHT22;71097;44.760;37.726;2023-07-08T05:45:05;29.06;67.23
79026;DHT22;71097;44.760;37.726;2023-07-08T05:46:11;29.09;67.57
79026;DHT22;71097;44.760;37.726;2023-07-08T05:47:13;28.95;67.23
79026;DHT22;71097;44.760;37.726;2023-07-08T05:48:15;28.78;67.64
79026;DHT22;71097;44.760;37.726;2023-07-08T05:49:17;28.74;67.40
79026;DHT22;71097;44.760;37.726;2023-07-08T05:50:18;28.80;67.85
79026;DHT22;71097;44.760;37.726;2023-07-08T05:51:23;28.83;67.72
79026;DHT22;71097;44.760;37.726;2023-07-08T05:52:24;28.76;68.01
79026;DHT22;71097;44.760;37.726;2023-07-08T05:53:26;28.71;68.23
79026;DHT22;71097;44.760;37.726;2023-07-08T05:54:27;28.72;67.88
79026;DHT22;71097;44.760;37.726;2023-07-08T05:55:29;28.69;68.23
79026;DHT22;71097;44.760;37.726;2023-07-08T05:56:32;28.64;68.17
79026;DHT22;71097;44.760;37.726;2023-07-08T05:57:36;28.59;68.74
79026;DHT22;71097;44.760;37.726;2023-07-08T05:58:38;28.62;68.93
79026;DHT22;71097;44.760;37.726;2023-07-08T05:59:39;28.64;68.94
79026;DHT22;71097;44.760;37.726;2023-07-08T06:00:42;28.56;69.29
79026;DHT22;71097;44.760;37.726;2023-07-08T06:01:44;28.58;69.26
79026;DHT22;71097;44.760;37.726;2023-07-08T06:02:45;28.71;68.75
79026;DHT22;71097;44.760;37.726;2023-07-08T06:03:47;28.84;68.56
79026;DHT22;71097;44.760;37.726;2023-07-08T06:04:49;28.88;68.16
79026;DHT22;71097;44.760;37.726;2023-07-08T06:05:51;29.02;67.91
79026;DHT22;71097;44.760;37.726;2023-07-08T06:06:53;29.07;66.57
79026;DHT22;71097;44.760;37.726;2023-07-08T06:07:55;29.04;66.90
79026;DHT22;71097;44.760;37.726;2023-07-08T06:08:57;29.16;66.01
79026;DHT22;71097;44.760;37.726;2023-07-08T06:09:58;29.24;66.46
79026;DHT22;71097;44.760;37.726;2023-07-08T06:11:00;29.20;66.62
79026;DHT22;71097;44.760;37.726;2023-07-08T06:12:02;29.22;66.77
79026;DHT22;71097;44.760;37.726;2023-07-08T06:13:03;29.32;67.14
79026;DHT22;71097;44.760;37.726;2023-07-08T06:14:05;29.23;66.86
79026;DHT22;71097;44.760;37.726;2023-07-08T06:15:07;29.24;66.77
79026;DHT22;71097;44.760;37.726;2023-07-08T06:16:11;29.27;66.47
79026;DHT22;71097;44.760;37.726;2023-07-08T06:17:13;29.34;66.48
79026;DHT22;71097;44.760;37.726;2023-07-08T06:18:14;29.46;66.73
79026;DHT22;71097;44.760;37.726;2023-07-08T06:19:16;29.53;66.02
79026;DHT22;71097;44.760;37.726;2023-07-08T06:20:18;29.57;65.52
79026;DHT22;71097;44.760;37.726;2023-07-08T06:21:20;29.62;65.53
79026;DHT22;71097;44.760;37.726;2023-07-08T06:22:21;29.58;64.68
79026;DHT22;71097;44.760;37.726;2023-07-08T06:23:24;29.39;64.85
79026;DHT22;71097;44.760;37.726;2023-07-08T06:24:26;29.17;65.87
79026;DHT22;71097;44.760;37.726;2023-07-08T06:25:27;29.11;66.32
79026;DHT22;71097;44.760;37.726;2023-07-08T06:26:29;29.11;66.95
79026;DHT22;71097;44.760;37.726;2023-07-08T06:27:30;29.14;67.08
79026;DHT22;71097;44.760;37.726;2023-07-08T06:28:32;29.20;66.88
79026;DHT22;71097;44.760;37.726;2023-07-08T06:29:34;29.27;66.85
79026;DHT22;71097;44.760;37.726;2023-07-08T06:30:36;29.23;67.03
79026;DHT22;71097;44.760;37.726;2023-07-08T06:31:38;29.19;66.96
79026;DHT22;71097;44.760;37.726;2023-07-08T06:32:40;29.07;66.87
79026;DHT22;71097;44.760;37.726;2023-07-08T06:33:42;28.85;67.17
79026;DHT22;71097;44.760;37.726;2023-07-08T06:34:43;28.77;67.97
79026;DHT22;71097;44.760;37.726;2023-07-08T06:35:47;28.75;68.47
79026;DHT22;71097;44.760;37.726;2023-07-08T06:36:49;28.65;68.94
79026;DHT22;71097;44.760;37.726;2023-07-08T06:37:51;28.63;68.63
79026;DHT22;71097;44.760;37.726;2023-07-08T06:38:52;28.67;68.94
79026;DHT22;71097;44.760;37.726;2023-07-08T06:39:54;28.68;68.67
79026;DHT22;71097;44.760;37.726;2023-07-08T06:40:55;28.63;68.49
79026;DHT22;71097;44.760;37.726;2023-07-08T06:41:57;28.71;68.71